ANZ234 YSSY-NZQN
Flight info
| Callsign | ANZ234 |
|---|---|
| Flight time | N/A |
| Altitude | 35000 |
| Route | OPTIC Y84 TONIM P766 ADKOS |
| Aircraft | A320/M-SDE3FGHIRWY/LB1 |
Departure
| Time | 2026-04-30 21:52 |
|---|---|
| Airport | Sydney Kingsford Smith International Airport (YSSY) |
Arrival
| Time | N/A |
|---|---|
| Airport | Queenstown Airport (NZQN) |
| Time | Latitude | Longitude | Altitude | Speed | Heading |
|---|---|---|---|---|---|
| 2026-04-30 21:37 | -33.93890 | 151.16437 | 30 ft | 2 kts | 168° |
| 2026-04-30 21:37 | -33.93875 | 151.16432 | 30 ft | 3 kts | 136° |
| 2026-04-30 21:37 | -33.93868 | 151.16417 | 30 ft | 3 kts | 77° |
| 2026-04-30 21:37 | -33.93875 | 151.16395 | 30 ft | 3 kts | 53° |
| 2026-04-30 21:38 | -33.93886 | 151.16380 | 30 ft | 3 kts | 62° |
| 2026-04-30 21:38 | -33.93889 | 151.16361 | 30 ft | 3 kts | 118° |
| 2026-04-30 21:38 | -33.93877 | 151.16344 | 30 ft | 3 kts | 147° |
| 2026-04-30 21:38 | -33.93885 | 151.16349 | 30 ft | 3 kts | 150° |
| 2026-04-30 21:39 | -33.93900 | 151.16350 | 30 ft | 3 kts | 200° |
| 2026-04-30 21:39 | -33.93910 | 151.16335 | 30 ft | 2 kts | 233° |
| 2026-04-30 21:39 | -33.93925 | 151.16319 | 30 ft | 3 kts | 215° |
| 2026-04-30 21:39 | -33.93944 | 151.16308 | 30 ft | 3 kts | 202° |
| 2026-04-30 21:40 | -33.93963 | 151.16301 | 30 ft | 3 kts | 194° |
| 2026-04-30 21:40 | -33.93974 | 151.16299 | 30 ft | 0 kts | 192° |
| 2026-04-30 21:40 | -33.93978 | 151.16298 | 30 ft | 1 kts | 192° |
| 2026-04-30 21:40 | -33.93982 | 151.16297 | 30 ft | 0 kts | 192° |
| 2026-04-30 21:43 | -33.93987 | 151.16295 | 30 ft | 2 kts | 192° |
| 2026-04-30 21:43 | -33.94003 | 151.16291 | 30 ft | 3 kts | 192° |
| 2026-04-30 21:43 | -33.94032 | 151.16283 | 30 ft | 5 kts | 192° |
| 2026-04-30 21:43 | -33.94074 | 151.16276 | 30 ft | 7 kts | 182° |
| 2026-04-30 21:44 | -33.94128 | 151.16288 | 30 ft | 9 kts | 163° |
| 2026-04-30 21:44 | -33.94193 | 151.16311 | 30 ft | 11 kts | 163° |
| 2026-04-30 21:44 | -33.94260 | 151.16363 | 29 ft | 13 kts | 109° |
| 2026-04-30 21:44 | -33.94240 | 151.16476 | 29 ft | 15 kts | 73° |
| 2026-04-30 21:45 | -33.94210 | 151.16603 | 29 ft | 17 kts | 73° |
| 2026-04-30 21:45 | -33.94175 | 151.16746 | 29 ft | 19 kts | 74° |
| 2026-04-30 21:45 | -33.94138 | 151.16905 | 29 ft | 21 kts | 74° |
| 2026-04-30 21:45 | -33.94097 | 151.17079 | 29 ft | 23 kts | 74° |
| 2026-04-30 21:46 | -33.94073 | 151.17224 | 29 ft | 12 kts | 103° |
| 2026-04-30 21:46 | -33.94150 | 151.17273 | 28 ft | 14 kts | 169° |
| 2026-04-30 21:46 | -33.94253 | 151.17298 | 29 ft | 15 kts | 168° |
| 2026-04-30 21:46 | -33.94361 | 151.17326 | 30 ft | 17 kts | 168° |
| 2026-04-30 21:47 | -33.94479 | 151.17355 | 30 ft | 18 kts | 168° |
| 2026-04-30 21:47 | -33.94610 | 151.17389 | 30 ft | 20 kts | 168° |
| 2026-04-30 21:47 | -33.94755 | 151.17426 | 30 ft | 22 kts | 168° |
| 2026-04-30 21:47 | -33.94915 | 151.17469 | 29 ft | 25 kts | 167° |
| 2026-04-30 21:48 | -33.95088 | 151.17515 | 29 ft | 26 kts | 167° |
| 2026-04-30 21:48 | -33.95275 | 151.17563 | 29 ft | 28 kts | 168° |
| 2026-04-30 21:48 | -33.95472 | 151.17614 | 30 ft | 30 kts | 168° |
| 2026-04-30 21:48 | -33.95679 | 151.17667 | 30 ft | 31 kts | 168° |
| 2026-04-30 21:49 | -33.95894 | 151.17722 | 30 ft | 32 kts | 168° |
| 2026-04-30 21:49 | -33.96116 | 151.17782 | 30 ft | 30 kts | 168° |
| 2026-04-30 21:49 | -33.96314 | 151.17832 | 30 ft | 26 kts | 167° |
| 2026-04-30 21:49 | -33.96431 | 151.17889 | 30 ft | 17 kts | 123° |
| 2026-04-30 21:50 | -33.96419 | 151.18026 | 30 ft | 14 kts | 60° |
| 2026-04-30 21:50 | -33.96370 | 151.18051 | 30 ft | 5 kts | 348° |
| 2026-04-30 21:50 | -33.96361 | 151.18048 | 30 ft | 0 kts | 348° |
| 2026-04-30 21:51 | -33.96352 | 151.18046 | 30 ft | 7 kts | 348° |
| 2026-04-30 21:51 | -33.96088 | 151.17977 | 27 ft | 73 kts | 347° |
| 2026-04-30 21:51 | -33.95399 | 151.17798 | 29 ft | 127 kts | 348° |
| 2026-04-30 21:51 | -33.94395 | 151.17534 | 37 ft | 167 kts | 346° |
| 2026-04-30 21:52 | -33.93266 | 151.17215 | 642 ft | 165 kts | 346° |
| 2026-04-30 21:52 | -33.92181 | 151.16769 | 1248 ft | 168 kts | 326° |
| 2026-04-30 21:52 | -33.91418 | 151.15708 | 1799 ft | 174 kts | 300° |
| 2026-04-30 21:52 | -33.90797 | 151.14382 | 2059 ft | 194 kts | 300° |
| 2026-04-30 21:53 | -33.90119 | 151.12877 | 2339 ft | 216 kts | 298° |
| 2026-04-30 21:53 | -33.89384 | 151.11166 | 2607 ft | 242 kts | 298° |
| 2026-04-30 21:53 | -33.88572 | 151.09275 | 3052 ft | 263 kts | 298° |
| 2026-04-30 21:53 | -33.87737 | 151.07321 | 3943 ft | 264 kts | 300° |
| 2026-04-30 21:54 | -33.86867 | 151.05355 | 4826 ft | 267 kts | 300° |
| 2026-04-30 21:54 | -33.85986 | 151.03364 | 5663 ft | 271 kts | 300° |
| 2026-04-30 21:54 | -33.85107 | 151.01337 | 6476 ft | 275 kts | 300° |
| 2026-04-30 21:54 | -33.84396 | 150.99177 | 7262 ft | 282 kts | 285° |
| 2026-04-30 21:55 | -33.84271 | 150.96805 | 8018 ft | 289 kts | 263° |
| 2026-04-30 21:55 | -33.84918 | 150.94523 | 8781 ft | 294 kts | 238° |
| 2026-04-30 21:55 | -33.86362 | 150.92801 | 9567 ft | 295 kts | 209° |
| 2026-04-30 21:55 | -33.88295 | 150.91997 | 10310 ft | 298 kts | 187° |
| 2026-04-30 21:56 | -33.90352 | 150.92141 | 11000 ft | 298 kts | 162° |
| 2026-04-30 21:56 | -33.92192 | 150.93310 | 11473 ft | 309 kts | 137° |
| 2026-04-30 21:56 | -33.93504 | 150.95441 | 11637 ft | 329 kts | 118° |
| 2026-04-30 21:56 | -33.94667 | 150.97907 | 11840 ft | 348 kts | 119° |
| 2026-04-30 21:57 | -33.95928 | 151.00488 | 12000 ft | 367 kts | 120° |
| 2026-04-30 21:57 | -33.97283 | 151.03157 | 12400 ft | 376 kts | 121° |
| 2026-04-30 21:57 | -33.98663 | 151.05845 | 13018 ft | 379 kts | 121° |
| 2026-04-30 21:57 | -34.00055 | 151.08562 | 13624 ft | 383 kts | 121° |
| 2026-04-30 21:58 | -34.01448 | 151.11304 | 14255 ft | 385 kts | 121° |
| 2026-04-30 21:58 | -34.02848 | 151.14078 | 14749 ft | 388 kts | 121° |
| 2026-04-30 21:58 | -34.04237 | 151.16834 | 15258 ft | 391 kts | 121° |
| 2026-04-30 21:58 | -34.05650 | 151.19645 | 15778 ft | 393 kts | 121° |
| 2026-04-30 21:59 | -34.07071 | 151.22478 | 16281 ft | 397 kts | 121° |
| 2026-04-30 21:59 | -34.08501 | 151.25340 | 16775 ft | 400 kts | 121° |
| 2026-04-30 21:59 | -34.09943 | 151.28215 | 17301 ft | 402 kts | 121° |
| 2026-04-30 22:00 | -34.12862 | 151.34028 | 18316 ft | 408 kts | 121° |
| 2026-04-30 22:00 | -34.15804 | 151.39940 | 19288 ft | 413 kts | 121° |
| 2026-04-30 22:00 | -34.17293 | 151.42911 | 19767 ft | 415 kts | 122° |
| 2026-04-30 22:01 | -34.18795 | 151.45905 | 20206 ft | 418 kts | 121° |
| 2026-04-30 22:01 | -34.20302 | 151.48918 | 20634 ft | 421 kts | 121° |
| 2026-04-30 22:01 | -34.21823 | 151.51963 | 21038 ft | 425 kts | 121° |
| 2026-04-30 22:01 | -34.23351 | 151.55028 | 21438 ft | 428 kts | 121° |
| 2026-04-30 22:02 | -34.24892 | 151.58124 | 21837 ft | 431 kts | 121° |
| 2026-04-30 22:02 | -34.26441 | 151.61232 | 22218 ft | 433 kts | 120° |
| 2026-04-30 22:02 | -34.27998 | 151.64366 | 22599 ft | 436 kts | 120° |
| 2026-04-30 22:02 | -34.29563 | 151.67520 | 22990 ft | 438 kts | 120° |
| 2026-04-30 22:03 | -34.31130 | 151.70688 | 23362 ft | 441 kts | 120° |
| 2026-04-30 22:03 | -34.32710 | 151.73881 | 23715 ft | 444 kts | 120° |
| 2026-04-30 22:03 | -34.34300 | 151.77094 | 24053 ft | 446 kts | 120° |
| 2026-04-30 22:03 | -34.35901 | 151.80326 | 24356 ft | 449 kts | 120° |
| 2026-04-30 22:04 | -34.37503 | 151.83571 | 24673 ft | 450 kts | 120° |
| 2026-04-30 22:04 | -34.39110 | 151.86830 | 25004 ft | 452 kts | 120° |
| 2026-04-30 22:04 | -34.42889 | 151.92929 | 25647 ft | 455 kts | 129° |
| 2026-04-30 22:05 | -34.44920 | 151.95885 | 26000 ft | 456 kts | 129° |
| 2026-04-30 22:05 | -34.46944 | 151.98828 | 26480 ft | 453 kts | 129° |
| 2026-04-30 22:05 | -34.48953 | 152.01754 | 26989 ft | 450 kts | 129° |
| 2026-04-30 22:05 | -34.50949 | 152.04666 | 27449 ft | 448 kts | 129° |
| 2026-04-30 22:06 | -34.52938 | 152.07574 | 27914 ft | 448 kts | 129° |
| 2026-04-30 22:06 | -34.56891 | 152.13367 | 28875 ft | 444 kts | 129° |
| 2026-04-30 22:06 | -34.58855 | 152.16244 | 29408 ft | 441 kts | 129° |
| 2026-04-30 22:07 | -34.60808 | 152.19109 | 29898 ft | 440 kts | 129° |
| 2026-04-30 22:07 | -34.62753 | 152.21966 | 30327 ft | 439 kts | 129° |
| 2026-04-30 22:07 | -34.64695 | 152.24830 | 30714 ft | 439 kts | 129° |
| 2026-04-30 22:07 | -34.66633 | 152.27694 | 31118 ft | 437 kts | 129° |
| 2026-04-30 22:08 | -34.67909 | 152.29579 | 31422 ft | 436 kts | 130° |
| 2026-04-30 22:08 | -34.69833 | 152.32414 | 31874 ft | 433 kts | 130° |
| 2026-04-30 22:08 | -34.71744 | 152.35227 | 32322 ft | 431 kts | 130° |
| 2026-04-30 22:08 | -34.73651 | 152.38036 | 32693 ft | 431 kts | 130° |
| 2026-04-30 22:09 | -34.75557 | 152.40846 | 33069 ft | 430 kts | 130° |
| 2026-04-30 22:09 | -34.77459 | 152.43656 | 33478 ft | 429 kts | 130° |
| 2026-04-30 22:09 | -34.79354 | 152.46452 | 33905 ft | 428 kts | 130° |
| 2026-04-30 22:09 | -34.81241 | 152.49238 | 34337 ft | 426 kts | 130° |
| 2026-04-30 22:10 | -34.83119 | 152.52017 | 34693 ft | 425 kts | 130° |
| 2026-04-30 22:10 | -34.84994 | 152.54795 | 35003 ft | 424 kts | 130° |
| 2026-04-30 22:10 | -34.86870 | 152.57575 | 35277 ft | 425 kts | 130° |
| 2026-04-30 22:10 | -34.88748 | 152.60360 | 35418 ft | 426 kts | 130° |
| 2026-04-30 22:11 | -34.92560 | 152.66030 | 35451 ft | 439 kts | 130° |
| 2026-04-30 22:11 | -34.94503 | 152.68923 | 35450 ft | 442 kts | 130° |
| 2026-04-30 22:12 | -34.98404 | 152.74741 | 35447 ft | 444 kts | 130° |
| 2026-04-30 22:12 | -35.02282 | 152.80538 | 35450 ft | 444 kts | 130° |
| 2026-04-30 22:13 | -35.06208 | 152.86404 | 35449 ft | 443 kts | 130° |
| 2026-04-30 22:13 | -35.10102 | 152.92232 | 35452 ft | 443 kts | 130° |
| 2026-04-30 22:14 | -35.13967 | 152.98031 | 35457 ft | 443 kts | 130° |
| 2026-04-30 22:14 | -35.17855 | 153.03869 | 35462 ft | 443 kts | 130° |
| 2026-04-30 22:15 | -35.21738 | 153.09719 | 35462 ft | 443 kts | 130° |
| 2026-04-30 22:15 | -35.25620 | 153.15582 | 35477 ft | 443 kts | 130° |
| 2026-04-30 22:16 | -35.29500 | 153.21434 | 35480 ft | 442 kts | 130° |
| 2026-04-30 22:17 | -35.37245 | 153.33145 | 35480 ft | 442 kts | 130° |
| 2026-04-30 22:17 | -35.43032 | 153.41940 | 35480 ft | 442 kts | 130° |
| 2026-04-30 22:18 | -35.48811 | 153.50749 | 35488 ft | 441 kts | 130° |
| 2026-04-30 22:19 | -35.54579 | 153.59550 | 35486 ft | 441 kts | 130° |
| 2026-04-30 22:20 | -35.60352 | 153.68366 | 35488 ft | 441 kts | 130° |
| 2026-04-30 22:20 | -35.66111 | 153.77198 | 35500 ft | 441 kts | 130° |
| 2026-04-30 22:21 | -35.69942 | 153.83088 | 35493 ft | 441 kts | 130° |
| 2026-04-30 22:21 | -35.73761 | 153.88980 | 35492 ft | 440 kts | 129° |
| 2026-04-30 22:22 | -35.77579 | 153.94879 | 35489 ft | 440 kts | 130° |
| 2026-04-30 22:22 | -35.81401 | 154.00776 | 35493 ft | 440 kts | 130° |
| 2026-04-30 22:23 | -35.85211 | 154.06677 | 35499 ft | 440 kts | 129° |
| 2026-04-30 22:23 | -35.89017 | 154.12586 | 35501 ft | 440 kts | 129° |
| 2026-04-30 22:24 | -35.92800 | 154.18449 | 35500 ft | 440 kts | 129° |
| 2026-04-30 22:24 | -35.96602 | 154.24360 | 35502 ft | 439 kts | 129° |
| 2026-04-30 22:25 | -36.00391 | 154.30276 | 35499 ft | 439 kts | 129° |
| 2026-04-30 22:25 | -36.04339 | 154.36018 | 35506 ft | 438 kts | 137° |
| 2026-04-30 22:26 | -36.10953 | 154.43811 | 35511 ft | 438 kts | 137° |
| 2026-04-30 22:27 | -36.15340 | 154.49022 | 35510 ft | 437 kts | 137° |
| 2026-04-30 22:27 | -36.21911 | 154.56851 | 35509 ft | 437 kts | 137° |
| 2026-04-30 22:28 | -36.28474 | 154.64681 | 35508 ft | 437 kts | 137° |
| 2026-04-30 22:29 | -36.37217 | 154.75127 | 35515 ft | 436 kts | 137° |
| 2026-04-30 22:31 | -36.52488 | 154.93467 | 35521 ft | 436 kts | 137° |
| 2026-04-30 22:32 | -36.63370 | 155.06615 | 35526 ft | 435 kts | 137° |
| 2026-04-30 22:33 | -36.74215 | 155.19765 | 35521 ft | 435 kts | 137° |
| 2026-04-30 22:35 | -36.85013 | 155.32918 | 35525 ft | 435 kts | 137° |
| 2026-04-30 22:36 | -36.95836 | 155.46139 | 35524 ft | 436 kts | 137° |
| 2026-04-30 22:37 | -37.04495 | 155.56757 | 35528 ft | 436 kts | 137° |
| 2026-04-30 22:38 | -37.13136 | 155.67421 | 35543 ft | 435 kts | 137° |
| 2026-04-30 22:39 | -37.19611 | 155.75396 | 35544 ft | 435 kts | 137° |
| 2026-04-30 22:40 | -37.32509 | 155.91387 | 35535 ft | 434 kts | 136° |
| 2026-04-30 22:41 | -37.43193 | 156.04700 | 35547 ft | 433 kts | 136° |
| 2026-04-30 22:43 | -37.56006 | 156.20718 | 35535 ft | 432 kts | 136° |
| 2026-04-30 22:44 | -37.64527 | 156.31426 | 35544 ft | 432 kts | 136° |
| 2026-04-30 22:45 | -37.77260 | 156.47516 | 35541 ft | 431 kts | 136° |
| 2026-04-30 22:47 | -37.89977 | 156.63632 | 35555 ft | 431 kts | 136° |
| 2026-04-30 22:48 | -37.98432 | 156.74415 | 35558 ft | 431 kts | 136° |
| 2026-04-30 22:49 | -38.11086 | 156.90595 | 35562 ft | 431 kts | 136° |
| 2026-04-30 22:51 | -38.23720 | 157.06850 | 35560 ft | 431 kts | 136° |
| 2026-04-30 22:52 | -38.30022 | 157.15002 | 35553 ft | 431 kts | 136° |
| 2026-04-30 22:53 | -38.38407 | 157.25844 | 35573 ft | 431 kts | 136° |
| 2026-04-30 22:53 | -38.44695 | 157.34029 | 35574 ft | 431 kts | 136° |
| 2026-04-30 22:55 | -38.55171 | 157.47674 | 35576 ft | 430 kts | 136° |
| 2026-04-30 22:56 | -38.62853 | 157.57735 | 35581 ft | 430 kts | 136° |
| 2026-04-30 22:57 | -38.73268 | 157.71431 | 35557 ft | 429 kts | 136° |
| 2026-04-30 22:58 | -38.81567 | 157.82382 | 35573 ft | 430 kts | 136° |
| 2026-04-30 22:59 | -38.94032 | 157.98905 | 35574 ft | 429 kts | 135° |